Date,TemperatureHighF,TemperatureAvgF,TemperatureLowF,DewpointHighF,DewpointAvgF,DewpointLowF,HumidityHigh,HumidityAvg,HumidityLow,PressureMaxIn,PressureMinIn,WindSpeedMaxMPH,WindSpeedAvgMPH,GustSpeedMaxMPH,PrecipitationSumIn
2013-1-1,53.7,43.5,33.0,46.0,38.7,31.0,93,84,68,30.19,30.10,4,0,7,0.06
2013-1-2,53.8,50.2,46.8,46.0,44.9,44.0,91,82,74,30.30,30.07,9,2,15,0.06
2013-1-3,58.3,48.6,40.9,47.0,42.4,38.0,91,80,61,30.52,30.31,6,1,6,0.00
2013-1-4,56.5,46.1,37.2,45.0,40.6,36.0,94,82,61,30.52,30.33,4,1,6,0.01
2013-1-5,53.3,45.0,37.2,46.0,41.0,35.0,94,86,75,30.33,30.12,8,1,12,0.00
2013-1-6,56.5,46.3,38.4,48.0,42.4,37.0,94,87,68,30.25,30.11,5,1,7,0.01
2013-1-7,57.9,47.6,41.2,47.0,42.6,39.0,95,84,63,30.25,30.09,11,1,13,0.00
2013-1-8,52.8,44.0,35.6,47.0,41.0,34.0,94,89,81,30.32,30.23,6,0,6,0.00
2013-1-9,54.3,48.9,44.4,46.0,43.3,42.0,93,81,67,30.23,30.14,4,0,6,0.00
2013-1-10,51.1,49.0,45.8,48.0,44.8,42.0,95,86,71,30.14,29.84,5,1,10,0.23
2013-1-11,53.6,45.7,41.6,51.0,43.9,41.0,98,93,81,29.88,29.69,20,2,21,0.02
2013-1-12,54.3,46.4,37.8,47.0,42.1,37.0,95,85,70,30.04,29.87,7,1,7,0.01
2013-1-13,54.8,49.9,46.5,51.0,46.6,43.0,95,88,79,30.03,29.76,9,2,24,0.74
2013-1-14,55.1,51.7,47.5,51.0,46.8,41.0,95,84,71,29.92,29.73,11,2,16,0.17
2013-1-15,54.4,47.2,41.5,44.0,40.8,36.0,93,79,52,29.92,29.59,7,1,12,0.20
2013-1-16,45.5,41.6,38.2,43.0,39.5,36.0,95,91,82,29.58,29.44,8,2,18,1.01
2013-1-17,48.0,40.7,37.6,44.0,37.6,35.0,93,88,82,29.47,29.30,12,2,19,0.07
2013-1-18,45.8,41.3,37.2,37.0,34.3,32.0,94,77,64,29.65,29.37,15,4,22,0.02
2013-1-19,49.9,39.3,32.8,47.0,35.7,30.0,91,86,80,29.67,29.54,15,3,23,0.10
2013-1-20,57.6,54.5,49.3,56.0,51.6,47.0,95,90,80,29.54,29.45,10,3,18,0.21
2013-1-21,53.9,49.1,44.9,50.0,45.2,40.0,94,86,78,29.55,29.39,9,2,18,0.10
2013-1-22,53.5,47.0,41.8,45.0,41.0,38.0,94,80,60,29.81,29.54,8,2,17,0.05
2013-1-23,47.1,44.5,42.0,43.0,40.1,37.0,93,85,75,29.82,29.59,11,3,19,0.28
2013-1-24,51.3,45.3,41.5,43.0,40.5,37.0,95,84,69,29.58,29.41,9,3,13,0.16
2013-1-25,51.7,44.9,39.3,39.0,36.3,33.0,89,73,58,29.66,29.44,16,5,20,0.00
2013-1-26,49.2,42.0,36.8,33.0,30.7,28.0,77,65,50,29.89,29.66,14,3,14,0.00
2013-1-27,51.9,41.2,33.5,38.0,32.4,28.0,86,71,57,30.00,29.89,5,1,9,0.00
2013-1-28,46.4,43.8,37.2,45.0,40.4,34.0,95,88,77,30.07,29.84,8,3,22,0.29
2013-1-29,55.9,46.4,38.8,45.0,41.0,36.0,92,82,58,30.26,30.06,6,1,7,0.00
2013-1-30,59.0,47.5,37.2,48.0,42.3,36.0,94,83,61,30.25,30.17,4,0,7,0.01
2013-1-31,63.6,53.3,44.8,52.0,47.8,42.0,94,82,61,30.21,30.14,5,1,9,0.00
2013-2-1,61.2,53.5,45.1,52.0,48.8,43.0,94,84,72,30.17,29.74,6,1,9,0.00
2013-2-2,60.9,53.9,50.9,53.0,48.0,40.0,92,81,65,29.73,29.26,11,3,19,0.14
2013-2-3,54.5,47.9,42.6,42.0,36.1,26.0,86,65,44,29.98,29.32,15,4,19,0.03
2013-2-4,54.9,44.9,36.6,38.0,30.5,24.0,81,58,37,30.16,29.99,5,1,11,0.00
2013-2-5,54.0,46.6,38.5,48.0,41.1,34.0,89,81,65,30.14,29.80,8,1,14,0.00
2013-2-6,54.9,49.2,41.5,48.0,40.7,32.0,94,74,46,29.80,29.51,12,2,19,0.19
2013-2-7,46.5,42.2,39.5,42.0,38.4,34.0,95,86,70,29.58,29.47,9,3,21,0.62
2013-2-8,49.5,43.3,38.4,34.0,31.0,27.0,73,62,51,29.77,29.58,14,4,19,0.01
2013-2-9,46.7,39.7,34.7,28.0,26.0,24.0,71,59,43,29.90,29.77,14,4,17,0.00
2013-2-10,46.3,37.9,31.2,26.0,22.3,12.0,79,56,25,29.97,29.89,9,2,12,0.00
2013-2-11,47.7,41.7,35.1,46.0,33.8,21.0,95,75,51,29.97,29.53,16,5,30,0.72
2013-2-12,53.0,46.3,40.7,44.0,41.8,39.0,94,84,68,29.71,29.55,8,1,10,0.01
2013-2-13,51.5,43.3,37.7,39.0,35.8,34.0,93,76,53,29.84,29.68,10,3,15,0.00
2013-2-14,54.5,45.1,38.2,37.0,35.0,33.0,81,69,48,30.01,29.84,9,2,12,0.00
2013-2-15,55.0,44.2,35.3,39.0,36.2,33.0,91,75,47,30.02,29.95,4,1,6,0.00
2013-2-16,56.4,46.5,39.6,43.0,37.2,33.0,89,71,47,30.07,30.00,5,1,8,0.00
2013-2-17,54.3,44.2,37.0,42.0,37.3,33.0,90,77,60,30.07,29.98,9,2,11,0.00
2013-2-18,50.2,43.0,36.8,41.0,37.4,34.0,91,81,65,30.01,29.95,6,2,10,0.00
2013-2-19,53.2,43.3,34.5,37.0,33.1,27.0,86,69,37,30.02,29.93,5,1,9,0.00
2013-2-20,53.7,43.2,32.4,39.0,34.7,29.0,88,73,53,30.01,29.91,4,0,7,0.00
2013-2-21,56.2,46.0,34.8,45.0,37.8,32.0,90,74,50,29.92,29.67,3,1,12,0.02
2013-2-22,52.7,49.6,45.5,49.0,45.1,43.0,92,84,76,29.67,29.44,9,2,18,0.01
2013-2-23,54.6,47.0,38.8,53.0,44.0,37.0,95,89,77,29.61,29.40,14,3,27,0.69
2013-2-24,49.0,44.3,38.6,41.0,36.9,32.0,90,76,54,29.94,29.63,8,2,15,0.09
2013-2-25,43.9,40.7,38.5,39.0,37.3,35.0,92,88,80,30.05,29.93,10,2,15,0.24
2013-2-26,54.9,45.0,37.4,41.0,37.9,35.0,93,78,52,30.14,30.04,5,0,8,0.00
2013-2-27,55.9,45.9,36.1,39.0,34.7,33.0,90,67,43,30.22,30.13,8,2,14,0.00
2013-2-28,59.0,47.4,35.2,43.0,38.1,32.0,89,72,48,30.25,30.14,6,1,8,0.00
2013-3-1,54.1,48.3,42.5,42.0,39.7,37.0,86,72,59,30.15,29.87,8,2,9,0.00
2013-3-2,61.2,53.1,46.2,43.0,39.0,32.0,80,61,41,30.01,29.81,14,4,20,0.00
2013-3-3,61.3,49.2,39.0,47.0,39.4,32.0,89,70,50,30.08,30.00,5,1,9,0.00
2013-3-4,61.7,49.5,37.6,46.0,41.9,36.0,93,77,51,30.20,30.08,4,0,8,0.01
2013-3-5,59.3,49.9,39.3,46.0,41.1,35.0,93,74,41,30.20,29.96,10,2,12,0.03
2013-3-6,61.9,55.2,50.6,54.0,46.4,38.0,97,74,45,29.95,29.70,14,3,18,0.57
2013-3-7,62.6,57.3,53.5,57.0,54.5,52.0,97,90,78,29.79,29.71,8,1,12,0.01
2013-3-8,60.0,56.7,54.1,56.0,54.0,52.0,95,90,81,29.78,29.65,7,1,15,0.09
2013-3-9,65.5,57.9,52.2,54.0,52.1,47.0,97,83,54,29.79,29.68,10,2,17,0.00
2013-3-10,63.8,56.4,51.0,54.0,50.6,46.0,96,82,59,29.71,29.54,11,2,21,0.94
2013-3-11,60.6,55.1,47.5,53.0,50.1,44.0,97,84,66,29.61,29.55,13,2,20,0.11
2013-3-12,58.1,48.8,43.7,52.0,46.2,42.0,96,91,78,29.60,29.51,13,2,18,0.65
2013-3-13,52.6,46.7,41.0,48.0,44.6,40.0,96,92,83,29.55,29.29,9,1,14,0.23
2013-3-14,55.5,48.2,43.8,46.0,40.8,35.0,96,78,53,29.30,29.13,23,4,23,0.01
2013-3-15,53.1,45.5,38.9,35.0,30.1,26.0,75,56,39,29.89,29.30,13,4,19,0.00
2013-3-16,53.8,44.0,34.2,35.0,28.1,17.0,78,56,26,30.13,29.90,8,1,12,0.00
2013-3-17,52.6,47.9,40.3,43.0,36.8,33.0,84,66,56,30.12,29.78,17,4,22,0.09
2013-3-18,58.7,53.8,47.3,54.0,48.3,43.0,90,82,66,29.78,29.50,14,4,23,0.31
2013-3-19,60.3,54.6,47.9,47.0,44.7,42.0,81,70,56,29.82,29.66,8,2,16,0.00
2013-3-20,57.6,50.0,43.2,49.0,43.6,39.0,94,79,54,29.82,29.67,7,1,13,0.35
2013-3-21,60.0,53.2,46.9,48.0,41.7,37.0,95,68,43,29.97,29.67,15,4,23,0.01
2013-3-22,65.0,51.9,39.7,49.0,41.8,34.0,89,71,38,29.96,29.87,8,1,12,0.00
2013-3-23,64.2,54.8,42.8,51.0,47.3,40.0,92,77,57,29.95,29.79,4,1,9,0.00
2013-3-24,73.5,59.4,48.9,49.0,45.4,39.0,92,64,30,29.79,29.45,10,2,17,0.00
2013-3-25,60.7,53.1,47.2,53.0,47.1,40.0,94,80,68,29.55,29.31,9,2,13,0.44
2013-3-26,57.4,50.7,45.5,51.0,46.4,40.0,92,85,74,29.60,29.52,6,1,14,0.09
2013-3-27,62.5,54.6,44.9,50.0,46.9,42.0,92,77,53,29.82,29.60,5,1,10,0.00
2013-3-28,58.1,53.9,50.9,55.0,50.7,48.0,95,89,84,29.89,29.81,6,1,10,0.11
2013-3-29,64.9,59.7,55.5,56.0,53.6,51.0,91,80,67,29.88,29.78,7,2,15,0.00
2013-3-30,63.4,58.6,55.0,56.0,53.3,51.0,94,82,72,29.78,29.48,16,3,22,0.19
2013-3-31,61.8,56.4,51.7,55.0,50.8,47.0,97,82,67,29.67,29.47,10,3,18,0.16
2013-4-1,63.4,55.5,50.5,51.0,46.6,43.0,92,73,51,29.73,29.52,10,2,20,0.23
2013-4-2,58.1,54.0,51.5,55.0,51.3,48.0,95,90,82,29.57,29.43,9,2,15,0.46
2013-4-3,64.2,55.0,49.4,49.0,46.9,45.0,92,75,52,29.79,29.58,7,1,11,0.00
2013-4-4,64.1,55.6,43.9,49.0,45.9,42.0,92,72,49,29.80,29.51,11,3,17,0.00
2013-4-5,62.5,57.2,53.6,55.0,50.7,45.0,93,79,55,29.80,29.43,14,2,21,0.15
2013-4-6,67.8,56.5,46.8,54.0,49.0,45.0,93,77,47,29.81,29.74,8,1,10,0.00
2013-4-7,66.8,58.2,50.7,52.0,45.4,37.0,89,65,44,29.77,29.64,14,4,20,0.00
2013-4-8,64.8,54.1,46.1,49.0,41.0,36.0,78,62,38,29.88,29.78,8,3,14,0.00
2013-4-9,64.4,58.6,53.0,53.0,49.4,45.0,90,73,49,29.93,29.82,9,2,14,0.06
2013-4-10,69.0,60.4,53.9,54.0,50.6,47.0,84,71,53,30.02,29.88,8,1,15,0.00
2013-4-11,68.3,59.8,49.3,52.0,47.7,44.0,92,67,44,30.05,30.01,6,1,16,0.00
2013-4-12,69.2,62.1,53.9,56.0,52.4,47.0,89,72,55,30.03,29.95,13,3,19,0.00
2013-4-13,72.7,61.4,52.0,55.0,51.1,46.0,94,72,39,30.27,30.03,6,1,14,0.00
2013-4-14,76.0,62.8,50.2,54.0,48.7,43.0,89,63,32,30.33,30.26,6,1,12,0.00
2013-4-15,77.2,63.8,50.9,56.0,50.7,47.0,86,65,39,30.27,30.13,8,1,12,0.00
2013-4-16,77.4,63.8,52.1,56.0,52.7,48.0,92,70,41,30.18,30.11,8,1,12,0.00
2013-4-17,76.5,64.4,53.9,57.0,52.8,49.0,89,69,41,30.22,30.15,6,1,11,0.00
2013-4-18,78.7,64.8,52.6,57.0,52.0,43.0,91,67,29,30.19,30.05,7,1,13,0.00
2013-4-19,77.6,65.7,54.2,61.0,53.6,46.0,90,67,40,30.07,29.93,8,1,12,0.00
2013-4-20,65.4,59.9,55.9,56.0,50.0,46.0,87,70,59,30.05,29.97,10,1,12,0.01
2013-4-21,65.3,58.1,50.2,50.0,45.5,40.0,82,65,40,30.05,29.95,8,2,14,0.00
2013-4-22,57.1,51.7,48.1,50.0,46.6,41.0,92,83,67,30.04,29.89,10,2,16,0.57
2013-4-23,68.3,57.7,49.4,51.0,48.5,46.0,92,73,50,30.27,30.05,9,1,10,0.03
2013-4-24,77.6,63.3,50.4,54.0,49.7,47.0,89,64,35,30.34,30.26,7,1,10,0.00
2013-4-25,77.9,66.8,57.7,59.0,54.0,44.0,84,65,30,30.29,30.12,9,2,12,0.00
2013-4-26,68.6,63.2,56.8,60.0,55.7,52.0,87,77,65,30.16,29.97,11,1,15,0.02
2013-4-27,66.5,60.5,53.2,58.0,55.0,51.0,91,83,69,29.97,29.77,15,2,21,0.03
2013-4-28,80.8,68.9,57.2,59.0,56.1,53.0,92,67,38,29.97,29.86,7,1,12,0.00
2013-4-29,87.6,75.5,61.2,60.0,53.0,47.0,78,48,30,30.02,29.96,11,2,17,0.00
2013-4-30,87.0,73.8,64.7,59.0,53.1,46.0,71,51,28,30.08,30.00,8,2,16,0.01
2013-5-1,82.0,70.2,60.1,59.0,55.0,47.0,86,61,35,30.08,30.00,9,1,14,0.05
2013-5-2,76.9,66.3,61.6,64.0,59.8,57.0,94,80,54,30.05,29.92,8,2,14,0.13
2013-5-3,82.3,68.9,57.7,63.0,57.5,55.0,91,69,43,29.98,29.89,5,2,12,0.00
2013-5-4,83.0,71.0,60.4,61.0,57.5,53.0,89,65,39,30.00,29.89,6,1,10,0.00
2013-5-5,73.2,65.4,61.7,61.0,58.8,54.0,90,80,62,30.04,29.95,7,1,9,0.13
2013-5-6,67.1,61.7,58.8,63.0,59.2,57.0,97,91,85,29.99,29.88,6,1,11,1.04
2013-5-7,70.6,63.1,59.2,61.0,58.0,56.0,93,84,67,30.04,29.97,4,0,11,0.02
2013-5-8,74.5,65.6,57.2,59.0,56.6,55.0,93,74,52,30.00,29.92,7,1,14,0.00
2013-5-9,78.8,66.8,55.5,61.0,56.7,51.0,96,73,42,30.00,29.95,9,1,11,0.00
2013-5-10,75.8,66.6,60.5,62.0,59.4,57.0,95,79,55,29.98,29.93,6,1,9,0.01
2013-5-11,73.3,66.4,60.3,60.0,58.4,56.0,92,76,57,29.96,29.85,7,1,20,0.00
2013-5-12,73.8,64.8,57.0,59.0,56.3,53.0,88,75,53,29.90,29.83,12,2,18,0.00
2013-5-13,72.4,64.1,54.4,54.0,47.2,39.0,91,59,30,30.00,29.90,14,5,25,0.00
2013-5-14,77.7,65.4,52.7,58.0,47.8,39.0,87,55,28,30.02,29.90,7,1,12,0.00
2013-5-15,73.3,62.9,53.4,59.0,53.4,48.0,91,73,43,29.89,29.71,6,1,16,0.01
2013-5-16,74.4,66.2,60.2,60.0,56.5,49.0,89,72,55,29.70,29.55,14,3,25,0.20
2013-5-17,69.7,64.9,60.3,63.0,55.7,49.0,90,73,50,29.93,29.57,11,2,17,0.06
2013-5-18,78.9,67.7,55.3,60.0,53.3,47.0,84,62,36,30.00,29.83,9,1,12,0.00
2013-5-19,71.0,66.3,62.2,59.0,53.5,47.0,85,65,44,30.07,29.82,8,2,16,0.00
2013-5-20,72.3,64.5,55.9,54.0,50.0,44.0,86,61,38,30.12,30.07,6,1,11,0.00
2013-5-21,67.1,61.3,54.9,56.0,52.0,48.0,92,72,54,30.11,29.85,10,2,12,0.06
2013-5-22,73.7,62.4,57.3,63.0,57.6,55.0,94,85,59,29.85,29.42,12,3,15,0.39
2013-5-23,66.4,60.6,56.5,58.0,55.8,53.0,95,84,64,29.69,29.46,10,2,16,0.06
2013-5-24,66.8,61.3,56.5,57.0,50.5,43.0,89,69,46,29.90,29.67,11,3,24,0.00
2013-5-25,66.4,58.7,54.1,49.0,46.0,43.0,74,63,45,29.90,29.83,15,4,24,0.02
2013-5-26,67.3,58.2,48.1,50.0,46.9,44.0,87,67,50,30.03,29.84,10,2,13,0.02
2013-5-27,70.8,62.1,52.7,54.0,48.5,38.0,83,64,31,30.02,29.93,7,2,18,0.00
2013-5-28,78.1,65.4,56.5,54.0,49.6,38.0,89,60,29,29.95,29.68,8,2,13,0.00
2013-5-29,70.0,63.2,57.5,59.0,52.0,46.0,85,68,47,29.77,29.71,14,2,21,0.01
2013-5-30,66.2,60.0,53.5,55.0,50.5,48.0,86,72,54,29.77,29.73,15,3,20,0.06
2013-5-31,66.8,60.4,51.7,55.0,51.0,48.0,89,72,53,29.77,29.72,13,3,20,0.00
2013-6-1,66.9,59.9,56.0,57.0,53.8,50.0,94,81,60,29.82,29.71,7,1,12,0.56
2013-6-2,74.1,64.2,54.7,61.0,56.5,53.0,95,77,58,29.96,29.81,7,1,12,0.01
2013-6-3,74.2,63.6,57.8,59.0,56.6,51.0,95,80,53,29.98,29.91,10,2,14,0.22
2013-6-4,74.7,64.0,56.3,61.0,57.7,55.0,97,82,56,30.02,29.91,8,2,15,0.29
2013-6-5,77.0,65.9,57.5,66.0,58.3,54.0,95,78,50,30.06,29.99,6,1,15,0.40
2013-6-6,79.4,68.6,57.1,63.0,56.6,53.0,88,67,44,30.09,30.00,7,1,13,0.00
2013-6-7,82.6,71.5,60.2,61.0,58.3,55.0,86,65,46,30.05,29.96,7,2,14,0.00
2013-6-8,83.1,71.9,61.1,61.0,58.7,55.0,86,65,40,30.01,29.93,5,1,15,0.00
2013-6-9,78.3,70.2,61.3,67.0,58.6,47.0,91,69,39,29.98,29.87,9,1,16,0.00
2013-6-10,75.4,69.6,64.6,62.0,58.1,53.0,89,68,49,29.91,29.86,9,2,18,0.00
2013-6-11,77.9,69.5,59.3,61.0,58.3,56.0,88,69,53,29.96,29.88,7,2,14,0.00
2013-6-12,85.3,73.9,61.7,60.0,55.0,50.0,87,56,32,30.02,29.94,14,4,18,0.00
2013-6-13,86.1,75.4,62.6,55.0,51.7,49.0,67,45,30,30.05,29.96,11,3,17,0.00
2013-6-14,88.5,75.7,61.3,61.0,55.7,50.0,73,51,38,30.03,29.98,8,1,14,0.00
2013-6-15,87.9,76.7,65.6,65.0,60.9,56.0,77,59,42,30.07,30.02,6,1,13,0.00
2013-6-16,89.1,77.9,65.3,65.0,62.2,60.0,86,61,39,30.08,30.03,7,1,9,0.00
2013-6-17,93.2,79.0,65.8,67.0,62.8,60.0,89,61,37,30.06,29.97,7,1,12,0.00
2013-6-18,94.8,82.6,69.5,71.0,64.1,61.0,80,55,35,30.01,29.97,13,1,13,0.00
2013-6-19,96.3,83.5,69.1,68.0,63.0,59.0,81,53,31,30.02,29.97,6,1,13,0.00
2013-6-20,93.8,82.6,69.7,67.0,62.8,56.0,77,54,28,30.02,29.98,10,1,13,0.00
2013-6-21,89.6,80.0,69.0,69.0,63.7,58.0,83,60,35,30.04,29.99,14,2,17,0.00
2013-6-22,85.1,76.0,66.3,68.0,62.4,57.0,86,65,40,30.05,29.99,8,1,11,0.00
2013-6-23,86.7,75.4,65.7,65.0,62.1,56.0,89,66,36,30.04,29.94,8,2,16,0.00
2013-6-24,78.1,72.1,67.5,64.0,60.6,56.0,81,68,48,29.95,29.87,12,2,16,0.00
2013-6-25,82.4,72.3,60.2,59.0,53.3,45.0,77,54,27,30.03,29.95,12,3,17,0.00
2013-6-26,81.3,67.8,61.4,60.0,55.6,53.0,88,66,44,30.09,30.01,10,2,22,0.25
2013-6-27,81.2,69.2,57.7,58.0,54.9,50.0,86,63,35,30.09,30.02,8,2,15,0.00
2013-6-28,79.6,69.4,61.7,60.0,56.7,54.0,82,66,42,30.05,29.95,17,2,22,0.00
2013-6-29,78.5,68.1,56.8,55.0,52.0,48.0,87,60,35,30.02,29.95,16,4,18,0.00
2013-6-30,82.6,71.9,59.5,58.0,51.2,47.0,71,50,30,30.09,30.02,8,2,13,0.00
2013-7-1,84.4,73.5,60.8,59.0,53.8,50.0,75,52,34,30.11,30.07,10,1,13,0.00
2013-7-2,87.5,75.8,63.1,59.0,54.8,52.0,71,50,33,30.10,30.02,7,2,13,0.00
2013-7-3,85.0,74.1,63.0,64.0,56.6,50.0,78,57,31,30.06,29.97,8,1,14,0.00
2013-7-4,85.2,73.1,63.0,66.0,62.3,56.0,93,71,39,30.06,29.96,9,2,13,0.20
2013-7-5,91.1,78.2,64.7,63.0,59.8,52.0,91,58,27,30.08,30.02,10,2,17,0.00
2013-7-6,92.0,79.4,70.8,65.0,58.9,52.0,65,51,28,30.09,30.02,14,2,17,0.02
2013-7-7,89.2,76.2,69.4,67.0,62.6,59.0,86,65,38,30.09,30.00,9,2,23,0.08
2013-7-8,91.2,74.4,66.0,69.0,63.8,58.0,88,73,33,30.11,30.03,7,1,22,0.56
2013-7-9,88.9,73.1,63.2,67.0,64.7,61.0,94,77,42,30.10,29.99,13,1,27,0.09
2013-7-10,89.2,74.4,64.8,68.0,64.8,61.0,93,75,43,30.00,29.85,10,1,26,0.54
2013-7-11,87.7,74.3,65.7,71.0,66.1,63.0,94,77,52,29.95,29.86,6,1,19,0.00
2013-7-12,88.2,78.5,68.1,69.0,65.1,62.0,85,65,44,30.02,29.94,8,1,11,0.00
2013-7-13,87.9,79.1,67.6,69.0,65.3,63.0,87,64,46,30.04,29.99,9,1,15,0.00
2013-7-14,89.6,78.7,68.4,69.0,66.1,64.0,86,67,47,30.02,29.95,7,1,15,0.00
2013-7-15,89.2,79.0,68.1,67.0,64.2,61.0,83,62,42,30.04,29.98,8,2,12,0.00
2013-7-16,90.5,80.7,69.6,67.0,62.6,58.0,79,56,33,30.09,30.03,8,1,15,0.00
2013-7-17,91.9,80.2,69.7,70.0,63.5,55.0,78,59,31,30.09,30.00,8,1,13,0.00
2013-7-18,88.9,78.6,69.9,71.0,65.8,62.0,83,66,47,30.07,30.02,8,2,15,0.00
2013-7-19,86.1,73.1,67.3,68.0,65.9,62.0,92,79,53,30.07,30.00,15,1,18,1.16
2013-7-20,88.3,76.0,64.6,69.0,64.3,61.0,93,70,42,30.03,29.93,7,1,11,0.00
2013-7-21,92.2,75.5,69.0,69.0,63.3,57.0,84,68,36,30.03,29.93,11,2,21,0.02
2013-7-22,92.2,77.4,65.3,70.0,64.3,57.0,89,66,33,30.02,29.91,9,2,12,0.00
2013-7-23,91.3,80.6,69.1,73.0,64.7,50.0,87,62,24,29.96,29.90,9,2,12,0.00
2013-7-24,91.5,81.5,70.0,73.0,66.4,61.0,84,62,38,30.04,29.96,9,2,15,0.00
2013-7-25,91.5,81.1,69.0,73.0,68.2,63.0,86,66,39,30.05,29.99,7,1,11,0.00
2013-7-26,93.2,83.7,73.2,72.0,68.7,64.0,87,63,41,30.02,29.94,8,1,15,0.00
2013-7-27,97.2,85.3,73.3,70.0,66.6,62.0,78,56,34,29.96,29.92,7,1,14,0.00
2013-7-28,97.4,85.2,71.1,69.0,66.0,63.0,82,55,32,30.05,29.96,9,1,11,0.00
2013-7-29,93.2,83.0,71.5,75.0,66.2,58.0,80,60,31,30.07,29.99,7,1,12,0.00
2013-7-30,90.9,82.2,73.1,76.0,62.9,53.0,89,56,28,30.02,29.92,11,3,21,0.00
2013-7-31,93.0,82.0,72.9,67.0,60.2,55.0,65,49,28,29.96,29.89,11,3,19,0.00
2013-8-1,93.9,81.4,71.6,68.0,58.7,53.0,68,47,30,30.00,29.93,10,2,17,0.00
2013-8-2,93.7,82.9,71.2,70.0,64.3,61.0,76,55,35,30.05,29.99,5,1,14,0.00
2013-8-3,96.0,84.1,71.9,68.0,64.6,61.0,78,54,36,30.06,30.01,8,2,13,0.00
2013-8-4,100.8,86.5,74.3,67.0,62.1,57.0,69,47,23,30.07,30.00,9,1,16,0.00
2013-8-5,100.0,84.6,72.7,64.0,59.5,54.0,64,45,23,30.04,29.94,5,1,9,0.00
2013-8-6,98.2,87.1,74.8,70.0,63.8,59.0,62,47,33,29.99,29.93,6,1,11,0.00
2013-8-7,98.6,85.9,70.6,68.0,62.6,55.0,81,49,23,29.96,29.91,6,1,12,0.00
2013-8-8,99.7,85.9,70.0,65.0,58.1,50.0,69,42,19,29.97,29.91,5,1,13,0.00
2013-8-9,89.3,80.7,75.0,65.0,60.7,56.0,69,51,40,29.94,29.82,9,2,21,0.00
2013-8-10,90.5,80.2,68.9,63.0,60.4,57.0,75,53,33,29.91,29.80,12,3,22,0.00
2013-8-11,92.4,79.7,69.7,66.0,60.9,58.0,70,54,32,29.94,29.89,7,2,12,0.00
2013-8-12,92.3,81.2,69.1,63.0,56.2,51.0,63,44,26,30.00,29.94,9,2,14,0.00
2013-8-13,91.8,80.3,68.7,63.0,59.2,55.0,68,50,29,30.00,29.94,6,1,12,0.00
2013-8-14,89.9,79.3,67.4,72.0,62.5,58.0,84,58,36,29.96,29.89,8,1,12,0.00
2013-8-15,92.2,80.3,70.5,72.0,63.0,61.0,84,58,37,30.03,29.94,10,2,15,0.00
2013-8-16,92.1,80.7,70.1,68.0,60.5,56.0,63,51,34,30.04,29.96,9,2,14,0.00
2013-8-17,92.1,80.3,69.2,66.0,60.7,57.0,71,53,32,30.03,29.97,9,2,13,0.00
2013-8-18,91.2,79.0,66.2,71.0,62.0,58.0,83,58,35,30.07,30.00,8,1,11,0.00
2013-8-19,91.8,79.3,68.3,71.0,65.1,61.0,84,65,36,30.05,29.95,6,1,17,0.00
2013-8-20,86.5,73.1,68.7,71.0,65.0,59.0,91,77,45,29.97,29.92,10,2,24,0.37
2013-8-21,88.9,74.8,66.2,65.0,61.5,59.0,81,65,38,29.99,29.93,9,2,26,0.03
2013-8-22,89.4,76.5,66.6,67.0,62.4,59.0,81,63,39,29.99,29.92,8,2,12,0.00
2013-8-23,89.9,77.6,64.9,67.0,62.7,60.0,88,63,39,30.00,29.93,9,1,19,0.00
2013-8-24,87.3,77.2,65.6,70.0,64.8,60.0,84,67,46,30.00,29.88,10,1,13,0.00
2013-8-25,82.3,74.7,68.4,70.0,67.5,64.0,91,79,59,29.91,29.78,9,2,17,0.43
2013-8-26,83.1,76.1,69.8,69.0,65.9,63.0,88,72,57,29.88,29.82,11,2,12,0.00
2013-8-27,81.3,72.5,66.2,70.0,66.6,63.0,94,82,63,29.88,29.83,8,1,13,1.55
2013-8-28,81.9,73.3,65.7,68.0,64.7,61.0,93,76,54,29.98,29.85,6,1,11,0.03
2013-8-29,84.0,74.2,65.3,67.0,63.2,59.0,90,70,44,30.07,29.98,5,1,11,0.00
2013-8-30,83.7,74.2,65.1,68.0,63.9,61.0,89,72,49,30.07,29.97,8,1,10,0.00
2013-8-31,83.5,74.4,65.5,67.0,62.9,59.0,85,68,50,30.06,29.99,8,1,11,0.00
2013-9-1,84.3,73.9,63.0,65.0,59.7,50.0,86,62,42,30.08,30.01,4,1,14,0.00
2013-9-2,87.0,74.5,62.2,64.0,60.2,51.0,86,64,31,30.16,30.07,9,1,11,0.00
2013-9-3,88.0,76.2,65.9,68.0,61.6,58.0,77,62,37,30.20,30.13,6,1,15,0.00
2013-9-4,90.3,77.2,65.8,64.0,60.0,53.0,83,59,30,30.20,30.09,10,1,17,0.00
2013-9-5,89.8,77.1,65.8,66.0,60.3,55.0,76,58,32,30.12,29.95,8,1,13,0.00
2013-9-6,89.1,76.8,67.1,67.0,62.2,59.0,78,62,41,29.98,29.88,9,2,14,0.00
2013-9-7,89.4,76.8,66.9,67.0,64.3,62.0,86,67,40,30.11,29.98,9,1,17,0.00
2013-9-8,86.8,76.5,67.3,71.0,66.7,62.0,87,73,45,30.18,30.10,7,1,14,0.00
2013-9-9,83.1,75.9,71.4,73.0,67.0,60.0,91,75,58,30.14,30.05,8,2,15,0.02
2013-9-10,79.1,71.8,65.8,67.0,63.2,60.0,93,75,55,30.09,29.97,6,1,17,0.28
2013-9-11,78.2,71.0,64.1,67.0,62.5,59.0,93,76,57,30.00,29.94,9,2,16,0.01
2013-9-12,76.2,71.0,65.0,60.0,57.6,54.0,81,64,49,29.99,29.92,8,2,17,0.00
2013-9-13,79.3,68.6,58.7,60.0,56.6,53.0,87,68,41,30.11,29.97,10,1,17,0.00
2013-9-14,78.4,68.9,58.6,60.0,56.4,52.0,84,66,40,30.13,30.06,7,1,12,0.00
2013-9-15,69.4,64.6,60.2,66.0,60.2,55.0,95,86,68,30.09,29.83,7,1,13,0.61
2013-9-16,75.6,67.4,59.6,64.0,60.4,57.0,95,79,58,29.83,29.74,11,2,19,0.10
2013-9-17,76.5,69.2,63.9,63.0,59.0,53.0,87,71,46,29.74,29.62,6,2,16,0.00
2013-9-18,76.5,67.0,57.6,60.0,57.3,54.0,90,72,53,29.79,29.73,10,2,16,0.00
2013-9-19,79.3,69.5,61.3,64.0,59.8,56.0,84,72,57,29.84,29.71,8,1,11,0.00
2013-9-20,82.1,70.8,62.5,61.0,59.1,54.0,88,68,39,30.04,29.85,6,2,11,0.00
2013-9-21,83.2,71.6,61.2,63.0,59.4,57.0,87,67,43,30.13,30.04,7,1,12,0.00
2013-9-22,80.0,70.8,61.9,59.0,52.5,47.0,77,54,33,30.20,30.12,10,3,14,0.00
2013-9-23,78.4,67.5,57.6,60.0,52.6,47.0,78,60,43,30.18,30.09,9,1,11,0.00
2013-9-24,80.3,67.6,57.3,63.0,58.1,54.0,89,73,46,30.10,30.03,7,1,13,0.00
2013-9-25,78.5,67.9,56.5,63.0,59.4,54.0,92,76,52,30.07,29.99,5,0,13,0.00
2013-9-26,80.1,69.3,59.4,64.0,59.7,56.0,92,73,46,30.05,29.96,5,1,10,0.00
2013-9-27,82.0,69.7,58.9,64.0,60.1,56.0,91,73,43,30.02,29.96,5,1,13,0.00
2013-9-28,80.6,69.4,59.5,66.0,61.9,57.0,91,78,57,29.99,29.91,4,1,10,0.00
2013-9-29,78.4,71.1,65.7,69.0,65.5,62.0,91,83,70,29.92,29.69,12,1,17,0.10
2013-9-30,73.8,66.2,62.0,66.0,62.7,59.0,94,88,75,29.70,29.59,10,2,17,0.65
2013-10-1,76.0,67.0,59.1,64.0,59.9,57.0,97,80,53,29.80,29.68,10,2,13,0.01
2013-10-2,77.7,68.3,61.0,60.0,57.5,53.0,89,70,51,30.06,29.80,8,1,11,0.00
2013-10-3,76.0,66.3,59.1,60.0,54.6,50.0,80,67,46,30.24,30.06,8,2,11,0.00
2013-10-4,73.3,65.9,57.8,59.0,55.8,52.0,87,71,57,30.29,30.21,5,1,9,0.00
2013-10-5,67.9,65.0,60.6,62.0,58.9,56.0,93,81,68,30.22,30.05,12,2,18,0.52
2013-10-6,76.6,68.2,62.5,66.0,63.5,61.0,95,85,67,30.05,29.98,9,2,15,0.02
2013-10-7,72.0,66.5,63.2,65.0,62.1,59.0,94,86,70,30.11,30.04,5,1,8,0.15
2013-10-8,71.8,63.8,59.2,63.0,59.4,56.0,95,86,67,30.14,30.07,5,1,11,0.27
2013-10-9,70.5,63.5,58.4,61.0,59.1,57.0,94,86,72,30.12,30.03,5,1,8,0.02
2013-10-10,67.9,62.4,56.5,65.0,59.1,55.0,94,89,78,30.06,29.84,5,1,17,0.09
2013-10-11,71.4,64.6,60.7,62.0,59.3,55.0,94,83,69,30.05,29.83,4,1,10,0.08
2013-10-12,75.2,66.0,56.5,66.0,60.8,54.0,94,83,67,30.16,29.99,8,1,11,0.00
2013-10-13,75.6,66.2,57.8,64.0,59.0,56.0,96,79,55,30.18,30.12,6,1,10,0.00
2013-10-14,78.3,65.9,55.5,59.0,56.5,52.0,93,74,41,30.17,30.09,5,1,9,0.00
2013-10-15,72.7,64.9,57.8,63.0,59.4,55.0,90,83,67,30.13,29.93,4,0,12,0.10
2013-10-16,75.3,68.0,62.9,66.0,60.9,56.0,96,80,57,29.94,29.74,9,1,16,0.30
2013-10-17,76.2,63.3,53.1,59.0,52.9,47.0,89,71,38,30.03,29.88,8,1,10,0.00
2013-10-18,75.1,62.9,52.0,62.0,55.4,49.0,91,78,53,30.12,30.03,5,1,9,0.00
2013-10-19,75.2,64.9,57.6,61.0,58.2,55.0,93,80,50,30.26,30.12,4,1,9,0.00
2013-10-20,74.0,65.0,56.0,64.0,57.6,51.0,88,77,63,30.31,30.25,6,1,7,0.00
2013-10-21,75.7,69.1,64.6,65.0,62.1,61.0,89,79,66,30.27,30.22,4,0,6,0.00
2013-10-22,77.7,67.5,60.0,64.0,61.4,58.0,94,82,57,30.24,30.14,5,1,9,0.00
2013-10-23,75.8,66.2,56.8,65.0,61.4,55.0,95,85,67,30.19,30.12,7,1,12,0.00
2013-10-24,71.4,64.2,59.4,64.0,60.6,58.0,95,88,71,30.19,30.12,5,1,8,0.05
2013-10-25,76.2,66.0,59.2,66.0,60.6,57.0,98,83,69,30.21,30.15,4,1,8,0.01
2013-10-26,77.2,65.6,57.0,66.0,61.6,57.0,98,88,62,30.24,30.18,4,0,8,0.00
2013-10-27,72.9,65.1,59.5,64.0,61.6,58.0,97,89,69,30.28,30.19,3,0,7,0.00
2013-10-28,74.9,67.1,61.0,66.0,62.1,58.0,93,84,69,30.20,30.09,6,1,10,0.00
2013-10-29,75.4,66.3,59.0,65.0,61.5,56.0,94,85,70,30.10,29.99,8,1,9,0.01
2013-10-30,74.1,65.4,59.3,63.0,60.4,57.0,94,84,65,30.08,29.96,6,1,6,0.00
2013-10-31,74.6,65.1,58.3,61.0,58.6,56.0,94,80,59,30.18,30.07,4,1,8,0.00
2013-11-1,72.0,63.6,55.9,60.0,57.0,54.0,92,80,62,30.19,30.11,5,1,9,0.00
2013-11-2,72.3,63.7,56.5,62.0,58.6,54.0,93,84,70,30.15,30.04,6,1,13,0.04
2013-11-3,72.0,65.6,61.5,64.0,60.0,-99.9,96,84,70,30.08,29.95,11,-9,16,0.06
2013-11-4,69.9,65.7,60.4,63.0,58.8,54.0,94,79,59,29.95,29.50,11,2,18,0.52
2013-11-5,66.3,59.9,55.0,60.0,55.0,-99.9,97,86,67,29.57,29.40,9,-9,11,0.54
2013-11-6,68.5,59.6,51.4,58.0,54.0,50.0,94,82,65,29.92,29.57,8,1,12,0.00
2013-11-7,70.9,61.3,51.0,63.0,56.7,49.0,94,85,72,30.12,29.92,11,2,17,0.01
2013-11-8,72.2,65.0,60.4,64.0,60.4,57.0,96,85,73,30.12,30.08,8,1,15,0.02
2013-11-9,71.3,64.2,59.9,64.0,59.3,57.0,89,84,75,30.08,29.98,9,2,19,0.02
2013-11-10,65.3,59.8,51.7,58.0,54.8,49.0,92,83,69,30.00,29.50,13,2,22,0.16
2013-11-11,55.7,52.6,49.5,50.0,47.3,44.0,92,82,72,29.75,29.42,19,8,29,0.20
2013-11-12,59.3,55.1,51.7,56.0,51.7,48.0,94,88,78,29.98,29.73,9,2,14,0.12
2013-11-13,64.9,57.9,50.0,57.0,52.5,49.0,95,83,69,29.99,29.90,9,2,14,0.00
2013-11-14,69.4,60.9,54.5,57.0,54.3,51.0,89,79,59,30.00,29.88,5,1,9,0.00
2013-11-15,60.1,56.9,53.4,56.0,54.6,52.0,96,92,86,30.02,29.83,8,1,12,0.58
2013-11-16,66.8,57.9,51.1,59.0,52.4,50.0,96,83,59,30.11,30.02,5,0,6,0.01
2013-11-17,68.8,59.6,54.8,56.0,52.9,50.0,91,79,62,30.18,30.08,6,1,10,0.00
2013-11-18,64.2,58.1,49.9,54.0,51.2,48.0,92,79,64,30.11,29.73,10,3,17,0.00
2013-11-19,62.5,56.5,52.0,56.0,51.8,49.0,96,84,70,29.79,29.46,15,3,20,1.20
2013-11-20,60.4,53.9,48.7,55.0,49.6,46.0,98,86,71,29.76,29.34,16,2,24,1.33
2013-11-21,57.4,51.8,47.9,47.0,45.0,40.0,94,78,60,29.75,29.54,13,2,19,0.27
2013-11-22,51.9,48.9,47.6,47.0,45.5,43.0,93,88,76,29.56,29.42,7,2,13,0.44
2013-11-23,47.5,46.1,44.9,46.0,44.0,43.0,95,92,88,29.59,29.42,11,2,16,0.75
2013-11-24,52.6,47.3,43.2,48.0,43.7,41.0,94,87,76,29.74,29.57,15,2,16,0.00
2013-11-25,56.3,45.8,39.5,46.0,37.9,25.0,93,75,51,29.93,29.74,18,5,32,0.01
2013-11-26,45.8,40.5,36.9,33.0,30.0,26.0,76,67,54,30.04,29.92,20,7,28,0.00
2013-11-27,45.3,40.0,36.2,35.0,32.4,30.0,84,74,66,30.31,30.03,11,4,16,0.00
2013-11-28,47.3,40.1,33.1,40.0,34.5,30.0,90,81,61,30.34,30.25,9,1,10,0.06
2013-11-29,54.8,44.9,37.5,44.0,38.6,34.0,91,79,62,30.28,30.12,6,1,10,0.00
2013-11-30,55.3,44.2,33.7,43.0,37.4,32.0,94,78,60,30.11,29.87,8,1,12,0.00
2013-12-1,57.4,54.2,48.2,42.0,40.0,38.0,72,59,48,29.87,29.70,25,11,31,0.01
2013-12-2,65.7,58.4,53.4,51.0,45.1,42.0,77,62,52,30.16,29.76,18,6,26,0.00
2013-12-3,59.4,53.3,45.6,42.0,37.0,33.0,70,55,43,30.26,30.15,14,6,19,0.00
2013-12-4,58.9,47.2,38.5,47.0,38.2,31.0,89,72,59,30.29,30.21,5,1,8,0.00
2013-12-5,53.8,43.3,34.7,42.0,37.2,33.0,92,80,57,30.24,30.15,4,0,6,0.00
2013-12-6,52.9,45.4,36.4,45.0,40.4,34.0,91,83,71,30.16,29.98,3,0,7,0.00
2013-12-7,56.6,46.5,38.9,45.0,41.2,37.0,94,82,62,30.34,30.03,3,1,7,0.01
2013-12-8,59.8,48.2,39.0,47.0,42.0,36.0,89,80,57,30.43,30.34,10,1,10,0.00
2013-12-9,58.9,51.0,44.3,48.0,44.4,41.0,90,78,65,30.45,30.40,6,1,10,0.00
2013-12-10,56.0,47.0,39.9,46.0,41.8,38.0,93,83,67,30.54,30.43,5,1,8,0.00
2013-12-11,57.7,47.4,38.0,50.0,43.0,36.0,92,85,69,30.57,30.51,5,0,6,0.00
2013-12-12,55.5,46.6,37.5,48.0,42.9,36.0,96,87,73,30.53,30.39,3,0,6,0.01
2013-12-13,51.8,43.0,36.8,45.0,40.0,36.0,96,89,76,30.39,30.29,8,2,10,0.00
2013-12-14,52.0,44.5,37.7,46.0,41.7,37.0,98,90,76,30.44,30.35,6,1,10,0.00
2013-12-15,54.6,48.9,44.4,47.0,44.0,39.0,94,83,69,30.52,30.41,5,1,12,0.03
2013-12-16,56.1,45.7,38.8,42.0,38.6,36.0,89,77,55,30.57,30.50,6,1,10,0.00
2013-12-17,56.3,43.1,33.4,40.0,35.4,31.0,90,76,48,30.52,30.43,3,0,6,0.00
2013-12-18,54.7,41.5,31.9,43.0,35.0,29.0,90,78,56,30.43,30.30,2,0,5,0.00
2013-12-19,56.0,44.5,31.9,45.0,38.1,30.0,92,79,67,30.32,30.19,7,1,11,0.00
2013-12-20,54.3,52.1,50.2,50.0,46.8,42.0,95,82,68,30.51,30.18,11,2,17,0.05
2013-12-21,58.0,49.3,41.0,52.0,46.7,40.0,97,91,75,30.60,30.51,5,1,8,0.00
2013-12-22,54.1,47.2,41.8,49.0,44.9,41.0,96,92,84,30.57,30.43,4,0,6,0.00
2013-12-23,53.0,44.7,39.1,48.0,42.9,38.0,98,93,81,30.43,30.29,7,1,10,0.02
2013-12-24,53.2,44.0,38.1,47.0,41.9,38.0,99,92,79,30.28,30.13,8,1,8,0.00
2013-12-25,57.2,52.5,47.2,52.0,45.7,42.0,88,78,70,30.13,29.65,14,2,19,0.05
2013-12-26,57.7,53.9,48.0,55.0,49.2,44.0,93,84,75,29.64,29.37,22,4,29,0.35
2013-12-27,53.2,47.7,41.8,47.0,43.9,40.0,93,87,78,29.93,29.51,7,1,8,0.00
2013-12-28,56.3,48.3,38.0,49.0,44.0,37.0,96,85,73,30.07,29.93,4,1,8,0.01
2013-12-29,58.4,52.6,48.1,54.0,48.4,45.0,92,86,73,30.15,30.06,3,0,9,0.06
2013-12-30,50.9,48.4,47.2,49.0,46.1,44.0,96,92,84,30.19,30.12,9,2,14,0.25
2013-12-31,56.4,49.5,45.3,47.0,44.2,42.0,92,82,68,30.14,30.08,5,1,8,0.01
2014-1-1,54.7,46.5,40.8,46.0,41.8,38.0,92,84,67,30.16,30.09,3,0,6,0.00
2014-1-2,54.5,46.5,36.9,48.0,42.7,35.0,95,87,74,30.14,30.07,6,1,13,0.02